Time;durP1;ratioP1;P1;durP2;ratioP2;P2;SDS_P1;SDS_P2;PMS_P1;PMS_P2;Temp;Humidity;BMP_temperature;BMP_pressure;BME280_temperature;BME280_humidity;BME280_pressure;Samples;Min_cycle;Max_cycle;Signal;HPM_P1;HPM_P2
2023/01/23 00:01:26;;;;;;;26.80;12.80;;;;;;;5.64;61.43;103428.25;4962854;28;118979;-70
2023/01/23 00:03:54;;;;;;;25.73;12.10;;;;;;;5.63;61.68;103419.50;4960716;28;123992;-70
2023/01/23 00:06:22;;;;;;;24.77;11.95;;;;;;;5.64;61.21;103421.25;4960044;28;124521;-71
2023/01/23 00:08:50;;;;;;;30.13;12.50;;;;;;;5.63;61.69;103419.50;4947444;28;118162;-71
2023/01/23 00:11:23;;;;;;;27.15;12.73;;;;;;;5.62;61.42;103409.81;4957277;28;121095;-71
2023/01/23 00:13:50;;;;;;;25.17;12.15;;;;;;;5.63;61.66;103414.22;4964165;28;124008;-71
2023/01/23 00:16:21;;;;;;;26.85;13.45;;;;;;;5.63;61.44;103419.50;4965898;28;123804;-70
2023/01/23 00:18:50;;;;;;;28.10;13.27;;;;;;;5.64;61.47;103420.38;4959198;28;120105;-71
2023/01/23 00:21:19;;;;;;;29.67;13.70;;;;;;;5.64;61.49;103410.72;4945760;28;120820;-71
2023/01/23 00:23:49;;;;;;;28.48;12.27;;;;;;;5.65;61.42;103423.03;4961389;28;125248;-71
2023/01/23 00:26:19;;;;;;;27.30;12.25;;;;;;;5.65;61.48;103423.03;4962717;28;123429;-71
2023/01/23 00:28:47;;;;;;;27.85;13.48;;;;;;;5.66;61.75;103414.25;4960092;28;119398;-71
2023/01/23 00:31:20;;;;;;;27.42;12.15;;;;;;;5.69;61.69;103423.06;4963233;28;118930;-71
2023/01/23 00:33:53;;;;;;;27.20;12.85;;;;;;;5.70;61.39;103422.22;4963606;28;123831;-71
2023/01/23 00:36:22;;;;;;;23.13;12.63;;;;;;;5.69;61.33;103423.06;4958715;28;123889;-70
2023/01/23 00:38:49;;;;;;;23.38;11.82;;;;;;;5.71;61.60;103437.13;4965268;28;118664;-71
2023/01/23 00:41:16;;;;;;;25.38;13.02;;;;;;;5.71;61.44;103432.78;4950829;28;118822;-71
2023/01/23 00:43:45;;;;;;;24.17;12.02;;;;;;;5.74;61.60;103437.19;4956382;28;123261;-71
2023/01/23 00:46:13;;;;;;;25.80;12.50;;;;;;;5.75;61.60;103444.22;4973673;28;123098;-71
2023/01/23 00:48:40;;;;;;;26.42;12.10;;;;;;;5.75;61.56;103439.84;4966142;28;119341;-70
2023/01/23 00:51:07;;;;;;;25.95;12.70;;;;;;;5.76;61.57;103445.97;4956981;28;120416;-71
2023/01/23 00:53:34;;;;;;;27.05;12.15;;;;;;;5.75;61.33;103450.34;4959867;28;123408;-71
2023/01/23 00:56:01;;;;;;;24.15;12.15;;;;;;;5.75;61.63;103454.75;4961223;28;123517;-71
2023/01/23 00:58:29;;;;;;;27.27;12.15;;;;;;;5.76;61.41;103456.50;4956387;28;120569;-70
2023/01/23 01:00:56;;;;;;;24.33;12.18;;;;;;;5.78;61.41;103454.78;4956847;28;120531;-71
2023/01/23 01:03:24;;;;;;;24.75;12.85;;;;;;;5.77;61.77;103458.28;4965623;28;123456;-71
2023/01/23 01:05:51;;;;;;;24.77;12.43;;;;;;;5.75;61.57;103450.34;4960576;28;124038;-70
2023/01/23 01:08:18;;;;;;;27.98;13.18;;;;;;;5.76;61.30;103445.97;4960586;28;120234;-71
2023/01/23 01:10:45;;;;;;;30.40;12.63;;;;;;;5.76;61.67;103446.84;4944024;28;120636;-71
2023/01/23 01:13:13;;;;;;;25.67;12.25;;;;;;;5.79;61.61;103446.03;4959508;28;123084;-71
2023/01/23 01:15:40;;;;;;;27.80;12.70;;;;;;;5.80;61.55;103437.28;4962597;28;124144;-71
2023/01/23 01:18:08;;;;;;;28.60;12.55;;;;;;;5.81;61.42;103445.19;4957853;28;119960;-71
2023/01/23 01:20:38;;;;;;;30.90;14.20;;;;;;;5.82;61.64;103446.06;4947027;28;120055;-71
2023/01/23 01:23:07;;;;;;;24.23;12.20;;;;;;;5.81;61.48;103445.19;4945112;28;123190;-71
2023/01/23 01:25:35;;;;;;;30.65;12.50;;;;;;;5.82;61.59;103446.06;4960953;28;123470;-71
2023/01/23 01:28:03;;;;;;;26.70;11.45;;;;;;;5.81;61.34;103450.44;4960136;28;120997;-70
2023/01/23 01:30:30;;;;;;;25.20;11.50;;;;;;;5.82;61.41;103456.59;4962086;28;120338;-70
2023/01/23 01:32:58;;;;;;;25.98;13.38;;;;;;;5.80;61.33;103453.97;4958615;28;123343;-71
2023/01/23 01:35:25;;;;;;;31.85;14.65;;;;;;;5.81;61.58;103449.56;4958875;28;123838;-71
2023/01/23 01:37:52;;;;;;;28.55;14.82;;;;;;;5.79;61.82;103456.56;4957612;28;119414;-71
2023/01/23 01:40:32;;;;;;;27.52;15.05;;;;;;;5.76;61.70;103456.50;4957370;28;118904;-71
2023/01/23 01:43:03;;;;;;;29.33;14.73;;;;;;;5.73;61.43;103456.47;4943957;28;125126;-71
2023/01/23 01:46:08;;;;;;;28.88;14.18;;;;;;;5.73;61.55;103459.09;4954968;28;124613;-71
2023/01/23 01:48:46;;;;;;;30.80;14.25;;;;;;;5.71;61.63;103466.03;4963906;28;119094;-71
2023/01/23 01:51:39;;;;;;;30.23;12.77;;;;;;;5.69;61.83;103466.03;4965764;28;119114;-71
2023/01/23 01:54:09;;;;;;;31.15;13.82;;;;;;;5.70;61.82;103466.91;4963177;28;123791;-71
2023/01/23 01:56:48;;;;;;;25.67;13.50;;;;;;;5.68;61.61;103463.38;4961418;28;123056;-71
2023/01/23 01:59:18;;;;;;;29.55;13.52;;;;;;;5.69;61.83;103475.66;4960850;28;121549;-71
2023/01/23 02:01:51;;;;;;;31.65;14.35;;;;;;;5.66;61.82;103472.09;4962282;28;121795;-71
2023/01/23 02:04:19;;;;;;;25.77;12.25;;;;;;;5.66;61.64;103468.59;4962141;28;124645;-71
2023/01/23 02:06:47;;;;;;;24.60;11.88;;;;;;;5.66;61.77;103466.84;4959788;28;122628;-71
2023/01/23 02:09:21;;;;;;;24.17;11.55;;;;;;;5.66;61.69;103464.22;4961976;28;119204;-71
2023/01/23 02:11:49;;;;;;;29.13;12.18;;;;;;;5.68;61.69;103463.38;4960184;28;119604;-71
2023/01/23 02:14:19;;;;;;;24.88;12.43;;;;;;;5.70;61.89;103472.19;4959435;28;125553;-71
2023/01/23 02:16:50;;;;;;;26.20;12.20;;;;;;;5.73;62.32;103472.25;4953244;28;124134;-71
2023/01/23 02:19:33;;;;;;;28.25;12.50;;;;;;;5.74;61.63;103468.72;4942348;28;119724;-71
2023/01/23 02:22:31;;;;;;;29.33;12.35;;;;;;;5.75;61.85;103462.63;4953995;28;117843;-71
2023/01/23 02:25:12;;;;;;;27.13;12.50;;;;;;;5.75;61.98;103466.13;4941799;28;125232;-71
2023/01/23 02:27:40;;;;;;;25.08;12.18;;;;;;;5.75;61.73;103460.00;4956928;28;124618;-70
2023/01/23 02:30:08;;;;;;;27.90;12.45;;;;;;;5.74;61.83;103455.59;4950658;28;119926;-71
2023/01/23 02:32:35;;;;;;;30.80;12.63;;;;;;;5.74;62.10;103455.59;4947302;28;120855;-71
2023/01/23 02:35:13;;;;;;;29.55;13.18;;;;;;;5.74;61.84;103452.97;4942070;28;125365;-70
2023/01/23 02:37:44;;;;;;;30.42;12.90;;;;;;;5.75;62.07;103452.13;4945399;28;125404;-70
2023/01/23 02:40:12;;;;;;;28.23;12.18;;;;;;;5.75;62.07;103457.38;4947597;28;120468;-71
2023/01/23 02:42:43;;;;;;;27.88;12.68;;;;;;;5.76;62.09;103453.88;4958519;28;118862;-71
2023/01/23 02:45:12;;;;;;;26.73;12.35;;;;;;;5.76;61.93;103452.09;4958531;28;125106;-70
2023/01/23 02:47:40;;;;;;;30.00;12.48;;;;;;;5.78;61.88;103457.41;4937998;28;125000;-70
2023/01/23 02:50:07;;;;;;;29.83;12.45;;;;;;;5.78;61.96;103454.78;4958593;28;120619;-70
2023/01/23 02:52:34;;;;;;;30.88;13.00;;;;;;;5.78;61.93;103450.44;4938149;28;120030;-69
2023/01/23 02:55:03;;;;;;;28.33;13.70;;;;;;;5.79;62.03;103446.03;4960333;28;124985;-70
2023/01/23 02:57:31;;;;;;;28.23;12.82;;;;;;;5.78;62.12;103449.50;4958190;28;124548;-70
2023/01/23 03:00:18;;;;;;;28.13;12.65;;;;;;;5.77;61.97;103459.16;4959598;28;120106;-69
2023/01/23 03:02:48;;;;;;;28.10;12.93;;;;;;;5.76;61.94;103454.75;4959912;28;119425;-70
2023/01/23 03:05:16;;;;;;;25.45;11.80;;;;;;;5.76;61.83;103456.50;4953585;28;124242;-70
2023/01/23 03:07:43;;;;;;;29.65;12.70;;;;;;;5.77;61.87;103460.91;4957001;28;124325;-70
2023/01/23 03:10:11;;;;;;;27.30;12.93;;;;;;;5.77;61.79;103463.53;4955572;28;118455;-70
2023/01/23 03:12:42;;;;;;;22.75;12.15;;;;;;;5.76;61.88;103456.50;4953726;28;120071;-70
2023/01/23 03:15:10;;;;;;;25.15;12.77;;;;;;;5.78;62.07;103449.50;4954810;28;125198;-70
2023/01/23 03:17:37;;;;;;;30.88;12.70;;;;;;;5.81;62.17;103454.84;4958503;28;124908;-70
2023/01/23 03:20:05;;;;;;;27.92;13.02;;;;;;;5.82;62.08;103460.13;4959715;28;120545;-70
2023/01/23 03:22:32;;;;;;;26.33;12.63;;;;;;;5.82;61.72;103461.84;4963565;28;119810;-70
2023/01/23 03:25:00;;;;;;;30.90;13.02;;;;;;;5.82;61.71;103462.75;4962286;28;125696;-70
2023/01/23 03:27:28;;;;;;;30.50;12.52;;;;;;;5.82;62.12;103467.09;4949956;28;125430;-71
2023/01/23 03:30:15;;;;;;;28.63;12.82;;;;;;;5.83;61.84;103468.91;4959494;28;121423;-71
2023/01/23 03:32:43;;;;;;;31.75;12.57;;;;;;;5.80;61.78;103458.31;4956904;28;118313;-70
2023/01/23 03:35:19;;;;;;;30.13;13.07;;;;;;;5.79;61.88;103456.56;4956698;28;123453;-70
2023/01/23 03:37:48;;;;;;;28.55;12.65;;;;;;;5.78;62.06;103462.66;4953675;28;125744;-70
2023/01/23 03:43:05;;;;;;;33.75;14.20;;;;;;;5.75;61.89;103460.00;4955666;28;120804;-71
2023/01/23 03:45:35;;;;;;;27.58;13.43;;;;;;;5.75;62.28;103460.00;4960270;28;125249;-70
2023/01/23 03:48:02;;;;;;;29.80;13.65;;;;;;;5.76;62.03;103461.75;4961229;28;124811;-70
2023/01/23 03:50:30;;;;;;;34.55;13.95;;;;;;;5.77;62.15;103459.16;4956451;28;120528;-70
2023/01/23 03:52:57;;;;;;;31.05;13.32;;;;;;;5.79;61.89;103467.06;4970685;28;120537;-69
2023/01/23 03:55:24;;;;;;;29.30;13.02;;;;;;;5.82;62.29;103472.38;4964326;28;124869;-69
2023/01/23 03:57:52;;;;;;;29.08;13.07;;;;;;;5.81;61.95;103470.63;4962395;28;125620;-70
2023/01/23 04:00:25;;;;;;;31.20;12.82;;;;;;;5.81;61.96;103471.50;4958414;28;120665;-70
2023/01/23 04:02:58;;;;;;;31.55;13.27;;;;;;;5.82;62.19;103475.00;4957220;28;120452;-70
2023/01/23 04:05:25;;;;;;;31.25;13.60;;;;;;;5.81;62.05;103466.22;4957705;28;123984;-69
2023/01/23 04:07:52;;;;;;;37.55;13.77;;;;;;;5.82;61.94;103475.00;4951656;28;122928;-70
2023/01/23 04:10:21;;;;;;;30.90;13.55;;;;;;;5.82;62.01;103473.28;4927215;28;120484;-69
2023/01/23 04:12:52;;;;;;;29.95;13.45;;;;;;;5.81;62.01;103476.75;4960698;28;120006;-70
2023/01/23 04:15:20;;;;;;;30.60;13.25;;;;;;;5.81;62.21;103473.25;4957637;28;123162;-69
2023/01/23 04:17:48;;;;;;;30.85;12.82;;;;;;;5.79;62.13;103472.34;4960833;28;123836;-69
2023/01/23 04:20:16;;;;;;;30.90;13.52;;;;;;;5.78;61.85;103470.56;4947709;28;120857;-69
2023/01/23 04:22:43;;;;;;;31.45;13.57;;;;;;;5.77;62.13;103468.81;4959034;28;119976;-69
2023/01/23 04:25:10;;;;;;;28.98;12.75;;;;;;;5.76;62.19;103473.16;4950172;28;124845;-70
2023/01/23 04:27:37;;;;;;;28.17;13.77;;;;;;;5.78;62.37;103475.81;4942668;28;124430;-70
2023/01/23 04:30:06;;;;;;;30.45;12.55;;;;;;;5.80;62.08;103474.09;4946244;28;120903;-70
2023/01/23 04:32:34;;;;;;;32.15;13.35;;;;;;;5.82;62.38;103475.00;4940197;28;121339;-69
2023/01/23 04:35:02;;;;;;;29.42;15.10;;;;;;;5.81;62.07;103475.88;4961720;28;125606;-70
2023/01/23 04:37:30;;;;;;;28.50;15.30;;;;;;;5.83;62.08;103484.69;4959579;28;124211;-70
2023/01/23 04:39:58;;;;;;;36.20;16.08;;;;;;;5.83;62.08;103484.69;4960794;28;120840;-70
2023/01/23 04:42:25;;;;;;;32.85;16.75;;;;;;;5.82;62.05;103477.63;4965421;28;121209;-69
2023/01/23 04:45:11;;;;;;;30.73;14.73;;;;;;;5.82;62.08;103477.63;4959047;28;124287;-69
2023/01/23 04:47:59;;;;;;;35.83;14.10;;;;;;;5.81;62.38;103470.63;4950185;28;125660;-70
2023/01/23 04:50:27;;;;;;;33.67;14.07;;;;;;;5.80;62.13;103474.09;4959974;28;120582;-70
2023/01/23 04:52:54;;;;;;;29.23;13.40;;;;;;;5.80;62.02;103474.09;4960981;28;119304;-70
2023/01/23 04:55:22;;;;;;;31.02;13.27;;;;;;;5.78;62.37;103475.81;4964483;28;125127;-72
2023/01/23 04:57:50;;;;;;;30.95;13.90;;;;;;;5.77;62.43;103480.19;4962415;28;123639;-70
2023/01/23 05:00:24;;;;;;;28.20;13.35;;;;;;;5.78;62.14;103481.06;4946076;28;119516;-70
2023/01/23 05:02:52;;;;;;;30.65;13.55;;;;;;;5.77;62.38;103481.94;4958309;28;120604;-70
2023/01/23 05:05:20;;;;;;;31.08;13.77;;;;;;;5.77;62.28;103484.56;4962274;28;125238;-70
2023/01/23 05:07:50;;;;;;;29.92;13.95;;;;;;;5.76;62.56;103477.53;4942606;28;125297;-70
2023/01/23 05:10:17;;;;;;;35.63;13.75;;;;;;;5.77;62.32;103487.22;4948451;28;118797;-69
2023/01/23 05:12:45;;;;;;;32.30;14.15;;;;;;;5.78;62.54;103486.31;4960221;28;119823;-70
2023/01/23 05:15:13;;;;;;;31.67;14.57;;;;;;;5.76;62.59;103488.94;4958605;28;124187;-70
2023/01/23 05:17:43;;;;;;;31.05;13.82;;;;;;;5.76;62.46;103494.19;4952295;28;124705;-70
2023/01/23 05:20:11;;;;;;;30.48;14.43;;;;;;;5.75;62.64;103491.56;4959690;28;119849;-70
2023/01/23 05:22:51;;;;;;;30.30;14.38;;;;;;;5.75;62.24;103491.56;4958676;28;121719;-70
2023/01/23 05:25:22;;;;;;;31.80;14.30;;;;;;;5.75;62.58;103486.28;4961877;28;124036;-70
2023/01/23 05:27:50;;;;;;;32.80;14.38;;;;;;;5.75;62.43;103492.44;4947290;28;123581;-70
2023/01/23 05:30:20;;;;;;;30.08;14.45;;;;;;;5.75;62.36;103494.19;4964244;28;119940;-70
2023/01/23 05:32:49;;;;;;;32.83;15.45;;;;;;;5.74;62.60;103497.66;4955378;28;119181;-70
2023/01/23 05:35:20;;;;;;;31.40;13.73;;;;;;;5.73;62.59;103493.28;4958211;28;125309;-70
2023/01/23 05:37:51;;;;;;;30.67;13.93;;;;;;;5.73;62.91;103499.41;4958803;28;125769;-70
2023/01/23 05:40:22;;;;;;;35.58;14.48;;;;;;;5.75;62.90;103491.56;4959103;28;119310;-70
2023/01/23 05:43:13;;;;;;;30.80;14.85;;;;;;;5.73;62.63;103498.53;4959512;28;120008;-69
2023/01/23 05:45:52;;;;;;;39.35;16.63;;;;;;;5.74;62.62;103500.28;4963387;28;124902;-70
2023/01/23 05:48:27;;;;;;;30.38;14.73;;;;;;;5.74;62.57;103500.28;4941536;28;124787;-70
2023/01/23 05:50:54;;;;;;;30.52;14.05;;;;;;;5.72;62.67;103502.88;4961747;28;118425;-70
2023/01/23 05:53:22;;;;;;;34.55;15.10;;;;;;;5.73;62.54;103503.78;4960339;28;117231;-70
2023/01/23 05:55:49;;;;;;;30.27;15.02;;;;;;;5.72;62.98;103507.25;4960973;28;126524;-70
2023/01/23 05:58:16;;;;;;;33.40;14.93;;;;;;;5.71;62.60;103505.47;4944298;28;125007;-70
2023/01/23 06:01:03;;;;;;;32.80;15.75;;;;;;;5.72;62.81;103512.53;4960067;28;119520;-70
2023/01/23 06:03:51;;;;;;;32.33;14.18;;;;;;;5.72;63.11;103512.53;4966076;28;119009;-70
2023/01/23 06:06:30;;;;;;;31.33;12.73;;;;;;;5.74;63.26;103521.31;4967933;28;124967;-70
2023/01/23 06:08:58;;;;;;;29.20;13.82;;;;;;;5.77;62.96;103519.63;4967123;28;121754;-71
2023/01/23 06:11:26;;;;;;;32.85;13.27;;;;;;;5.80;62.68;103521.44;4944247;28;121059;-70
2023/01/23 06:13:53;;;;;;;28.23;13.23;;;;;;;5.85;62.93;103530.28;4959340;28;120040;-70
2023/01/23 06:16:20;;;;;;;30.23;14.23;;;;;;;5.87;62.93;103533.84;4963780;28;125197;-70
2023/01/23 06:18:47;;;;;;;25.33;13.00;;;;;;;5.87;62.82;103528.56;4963211;28;125902;-70
2023/01/23 06:21:17;;;;;;;32.10;13.45;;;;;;;5.90;62.66;103533.91;4958968;28;118448;-70
2023/01/23 06:23:45;;;;;;;27.23;13.57;;;;;;;5.91;62.89;103534.78;4961554;28;118861;-70
2023/01/23 06:26:12;;;;;;;31.75;14.10;;;;;;;5.91;62.92;103535.66;4956800;28;124700;-70
2023/01/23 06:28:40;;;;;;;29.75;13.23;;;;;;;5.93;62.85;103539.19;4958708;28;124988;-70
2023/01/23 06:31:09;;;;;;;27.23;13.70;;;;;;;5.93;62.58;103539.19;4958540;28;120486;-70
2023/01/23 06:33:51;;;;;;;23.67;12.07;;;;;;;5.96;63.01;103544.56;4961536;28;119500;-70
2023/01/23 06:36:21;;;;;;;33.95;14.70;;;;;;;5.97;62.80;103546.34;4944554;28;124120;-69
2023/01/23 06:38:48;;;;;;;25.17;12.43;;;;;;;5.99;62.65;103542.00;4950230;28;122963;-70
2023/01/23 06:41:17;;;;;;;31.40;14.63;;;;;;;6.01;62.89;103537.63;4955799;28;120583;-70
2023/01/23 06:43:50;;;;;;;28.92;13.23;;;;;;;6.00;62.46;103535.84;4949567;28;120365;-70
2023/01/23 06:46:21;;;;;;;25.70;13.60;;;;;;;5.98;62.74;103529.69;4943476;28;125438;-71
2023/01/23 06:48:49;;;;;;;24.52;12.68;;;;;;;5.96;62.61;103534.03;4939491;28;125501;-70
2023/01/23 06:51:17;;;;;;;27.25;12.73;;;;;;;5.98;62.45;103542.84;4960312;28;121050;-70
2023/01/23 06:53:45;;;;;;;26.50;12.90;;;;;;;5.98;62.56;103542.84;4940574;28;120396;-69
2023/01/23 06:56:13;;;;;;;26.88;12.57;;;;;;;5.99;62.64;103541.09;4958738;28;123990;-70
2023/01/23 06:58:44;;;;;;;25.75;12.07;;;;;;;6.00;62.69;103551.63;4961072;28;124989;-70
2023/01/23 07:01:19;;;;;;;27.02;12.30;;;;;;;6.02;62.57;103539.41;4970618;28;119410;-70
2023/01/23 07:04:05;;;;;;;29.15;12.77;;;;;;;6.02;62.34;103555.19;4966249;28;119845;-70
2023/01/23 07:06:32;;;;;;;29.33;13.02;;;;;;;6.03;62.38;103561.34;4962289;28;124098;-70
2023/01/23 07:09:00;;;;;;;31.35;13.05;;;;;;;6.02;62.68;103557.81;4959693;28;124620;-70
2023/01/23 07:11:27;;;;;;;31.70;14.38;;;;;;;6.03;62.40;103562.22;4957448;28;120580;-70
2023/01/23 07:13:56;;;;;;;26.52;12.85;;;;;;;6.01;62.43;103558.69;4954509;28;119151;-70
2023/01/23 07:16:25;;;;;;;28.45;13.40;;;;;;;6.00;62.47;103562.16;4959199;28;125577;-70
2023/01/23 07:18:57;;;;;;;24.88;13.23;;;;;;;5.99;62.72;103568.31;4955333;28;125062;-69
2023/01/23 07:21:25;;;;;;;28.67;12.68;;;;;;;5.97;62.42;103567.38;4952704;28;120668;-70
2023/01/23 07:23:52;;;;;;;31.08;13.68;;;;;;;5.98;62.83;103563.00;4956516;28;119143;-70
2023/01/23 07:26:19;;;;;;;25.60;12.73;;;;;;;5.98;62.88;103571.78;4953797;28;123996;-70
2023/01/23 07:28:46;;;;;;;27.73;12.70;;;;;;;5.98;62.50;103569.16;4953249;28;124664;-70
2023/01/23 07:31:13;;;;;;;26.17;13.43;;;;;;;6.00;62.53;103577.94;4955436;28;120166;-70
2023/01/23 07:33:41;;;;;;;25.92;12.73;;;;;;;6.00;62.61;103572.69;4950895;28;119135;-69
2023/01/23 07:36:08;;;;;;;24.67;13.02;;;;;;;6.00;62.69;103583.22;4953050;28;124904;-69
2023/01/23 07:38:35;;;;;;;28.55;13.13;;;;;;;6.00;62.69;103580.56;4964058;28;123528;-69
2023/01/23 07:41:02;;;;;;;23.45;12.00;;;;;;;6.01;62.88;103579.72;4960199;28;118060;-69
2023/01/23 07:43:29;;;;;;;19.60;9.25;;;;;;;6.02;62.59;103585.88;4963722;28;119083;-69
2023/01/23 07:45:58;;;;;;;23.35;9.55;;;;;;;6.03;62.64;103588.53;4960185;28;125245;-69
2023/01/23 07:48:26;;;;;;;20.48;9.63;;;;;;;6.03;62.86;103593.81;4958982;28;122977;-69
2023/01/23 07:50:54;;;;;;;19.23;9.50;;;;;;;6.05;62.91;103599.09;4963208;28;119976;-68
2023/01/23 07:53:21;;;;;;;18.75;8.60;;;;;;;6.08;62.52;103595.63;4949142;28;120625;-69
2023/01/23 07:55:48;;;;;;;17.75;8.93;;;;;;;6.08;62.48;103596.50;4964528;28;124678;-69
2023/01/23 07:58:16;;;;;;;19.58;9.30;;;;;;;6.10;62.85;103604.44;4962314;28;123641;-68
2023/01/23 08:00:43;;;;;;;16.35;7.65;;;;;;;6.11;62.55;103600.94;4959974;28;119511;-69
2023/01/23 08:03:10;;;;;;;18.05;8.30;;;;;;;6.13;62.80;103604.50;4962015;28;119135;-68
2023/01/23 08:05:37;;;;;;;14.20;7.75;;;;;;;6.16;62.72;103605.44;4965587;28;124468;-69
2023/01/23 08:08:05;;;;;;;17.50;8.98;;;;;;;6.18;62.58;103602.84;4945959;28;123221;-69
2023/01/23 08:10:40;;;;;;;18.52;8.95;;;;;;;6.19;62.41;103605.47;4964003;28;119572;-68
2023/01/23 08:13:07;;;;;;;18.90;9.07;;;;;;;6.19;62.83;103604.59;4963329;28;119788;-68
2023/01/23 08:15:37;;;;;;;21.50;9.15;;;;;;;6.21;62.79;103616.03;4948888;28;123466;-69
2023/01/23 08:18:04;;;;;;;15.25;8.27;;;;;;;6.22;62.85;103616.06;4964264;28;123632;-69
2023/01/23 08:20:32;;;;;;;17.10;8.85;;;;;;;6.23;62.69;103616.94;4960517;28;120575;-69
2023/01/23 08:23:01;;;;;;;17.42;8.23;;;;;;;6.26;62.50;103614.38;4963560;28;119599;-69
2023/01/23 08:25:28;;;;;;;19.30;8.35;;;;;;;6.26;62.44;103622.28;4947222;28;125646;-69
2023/01/23 08:27:56;;;;;;;17.48;8.27;;;;;;;6.27;62.54;103618.75;4963260;28;123905;-69
2023/01/23 08:30:23;;;;;;;17.50;8.27;;;;;;;6.27;62.69;103629.28;4963008;28;119139;-69
2023/01/23 08:32:50;;;;;;;20.17;8.90;;;;;;;6.29;62.48;103624.97;4959681;28;118849;-69
2023/01/23 08:35:17;;;;;;;19.98;9.23;;;;;;;6.32;62.47;103625.00;4962024;28;125173;-69
2023/01/23 08:37:44;;;;;;;17.40;8.40;;;;;;;6.32;62.38;103627.63;4963098;28;124196;-69
2023/01/23 08:40:12;;;;;;;20.38;8.95;;;;;;;6.35;62.70;103626.81;4946739;28;120521;-69
2023/01/23 08:42:39;;;;;;;14.93;8.27;;;;;;;6.38;62.61;103627.72;4967528;28;120295;-69
2023/01/23 08:45:06;;;;;;;27.90;12.57;;;;;;;6.40;62.52;103636.56;4963722;28;124227;-69
2023/01/23 08:47:35;;;;;;;15.82;8.52;;;;;;;6.42;62.48;103629.59;4962781;28;124081;-69
2023/01/23 08:50:04;;;;;;;18.85;9.27;;;;;;;6.43;62.32;103630.47;4963941;28;119341;-68
2023/01/23 08:52:33;;;;;;;23.60;9.93;;;;;;;6.47;62.52;103636.66;4962667;28;119301;-69
2023/01/23 08:55:00;;;;;;;18.00;9.45;;;;;;;6.48;62.58;103646.31;4962259;28;124381;-69
2023/01/23 08:57:28;;;;;;;21.98;9.85;;;;;;;6.50;62.54;103631.44;4963590;28;123109;-69
2023/01/23 08:59:55;;;;;;;20.10;9.70;;;;;;;6.52;62.52;103645.53;4964920;28;120446;-69
2023/01/23 09:02:22;;;;;;;21.15;9.13;;;;;;;6.54;62.50;103643.81;4974280;28;120214;-69
2023/01/23 09:04:49;;;;;;;17.73;8.88;;;;;;;6.56;62.26;103645.59;4955555;28;124512;-69
2023/01/23 09:07:17;;;;;;;20.02;9.13;;;;;;;6.58;62.34;103640.38;4961144;28;123741;-69
2023/01/23 09:09:44;;;;;;;23.95;10.15;;;;;;;6.62;62.42;103642.19;4964463;28;118941;-69
2023/01/23 09:12:11;;;;;;;17.15;9.07;;;;;;;6.65;62.58;103642.25;4964044;28;119012;-69
2023/01/23 09:14:38;;;;;;;23.30;9.38;;;;;;;6.66;62.25;103644.00;4963488;28;124411;-69
2023/01/23 09:17:05;;;;;;;19.17;9.70;;;;;;;6.69;62.36;103645.81;4947170;28;123014;-69
2023/01/23 09:19:33;;;;;;;17.35;8.82;;;;;;;6.72;62.56;103649.38;4946527;28;120617;-69
2023/01/23 09:22:00;;;;;;;23.92;10.07;;;;;;;6.74;62.51;103652.94;4948314;28;118796;-69
2023/01/23 09:24:27;;;;;;;19.23;8.77;;;;;;;6.74;62.29;103646.75;4931528;28;125308;-69
2023/01/23 09:26:54;;;;;;;21.83;9.98;;;;;;;6.74;62.38;103642.41;4948686;28;125083;-69
2023/01/23 09:29:21;;;;;;;18.25;9.27;;;;;;;6.76;62.14;103645.94;4951960;28;120852;-68
2023/01/23 09:31:48;;;;;;;17.45;9.07;;;;;;;6.76;62.30;103635.41;4959628;28;120667;-69
2023/01/23 09:34:15;;;;;;;19.23;9.48;;;;;;;6.77;62.62;103631.91;4955479;28;124484;-68
2023/01/23 09:36:43;;;;;;;15.95;8.75;;;;;;;6.76;62.09;103630.16;4939071;28;124313;-69
2023/01/23 09:39:11;;;;;;;18.08;8.63;;;;;;;6.77;62.24;103626.63;4942838;28;119378;-69
2023/01/23 09:41:39;;;;;;;21.33;9.32;;;;;;;6.78;62.56;103633.69;4933187;28;119437;-69
2023/01/23 09:44:24;;;;;;;17.50;8.18;;;;;;;6.78;62.38;103638.97;4948747;28;123834;-69
2023/01/23 09:47:01;;;;;;;21.65;9.85;;;;;;;6.79;62.15;103635.44;4948166;28;123567;-69
2023/01/23 09:49:36;;;;;;;16.00;8.57;;;;;;;6.80;62.39;103642.50;4947547;28;121034;-69
2023/01/23 09:52:16;;;;;;;17.65;9.30;;;;;;;6.81;62.45;103638.97;4944573;28;119163;-70
2023/01/23 09:54:48;;;;;;;15.95;8.57;;;;;;;6.85;62.55;103649.56;4931474;28;124561;-69
2023/01/23 09:57:19;;;;;;;17.88;8.40;;;;;;;6.85;62.19;103644.31;4946199;28;125020;-69
2023/01/23 09:59:50;;;;;;;17.92;8.55;;;;;;;6.87;62.30;103659.25;4961445;28;119438;-69
2023/01/23 10:02:27;;;;;;;17.90;8.10;;;;;;;6.89;62.43;103656.66;4946381;28;119018;-69
2023/01/23 10:04:57;;;;;;;15.35;8.70;;;;;;;6.93;62.17;103658.47;4946968;28;123353;-68
2023/01/23 10:07:47;;;;;;;15.48;7.68;;;;;;;6.94;62.26;103657.63;4960338;28;124933;-68
2023/01/23 10:10:25;;;;;;;15.25;7.35;;;;;;;6.96;62.33;103661.16;4956400;28;119823;-69
2023/01/23 10:13:01;;;;;;;14.25;7.05;;;;;;;6.98;62.41;103664.72;4970972;28;117113;-68
2023/01/23 10:15:53;;;;;;;12.73;7.18;;;;;;;7.00;62.23;103665.63;4962735;28;124295;-68
2023/01/23 10:18:31;;;;;;;16.17;6.45;;;;;;;7.01;62.17;103662.13;4960314;28;125580;-69
2023/01/23 10:21:10;;;;;;;11.85;7.03;;;;;;;7.02;61.98;103663.91;4950810;28;119024;-69
2023/01/23 10:24:02;;;;;;;12.43;7.35;;;;;;;7.04;62.36;103667.44;4951993;28;120921;-69
2023/01/23 10:26:33;;;;;;;13.55;6.70;;;;;;;7.08;61.77;103663.09;4948931;28;123892;-69
2023/01/23 10:29:21;;;;;;;12.82;6.70;;;;;;;7.06;61.86;103665.72;4957775;28;123770;-68
2023/01/23 10:31:48;;;;;;;16.77;7.60;;;;;;;7.06;61.63;103665.72;4958630;28;119306;-69
2023/01/23 10:34:27;;;;;;;12.50;7.18;;;;;;;7.06;61.86;103655.16;4958129;28;118891;-69
2023/01/23 10:37:21;;;;;;;15.38;7.47;;;;;;;7.08;61.88;103653.44;4951355;28;124753;-68
2023/01/23 10:43:12;;;;;;;13.27;6.68;;;;;;;7.08;61.96;103663.97;4951393;28;119530;-69
2023/01/23 10:45:40;;;;;;;16.38;7.53;;;;;;;7.08;61.69;103663.97;4937790;28;120493;-68
2023/01/23 10:48:27;;;;;;;14.20;7.45;;;;;;;7.09;61.70;103660.50;4970826;28;123507;-68
2023/01/23 10:50:54;;;;;;;13.23;6.90;;;;;;;7.13;61.84;103657.03;4966785;28;123394;-68
2023/01/23 10:53:24;;;;;;;14.45;7.20;;;;;;;7.15;62.01;103655.31;4938037;28;120948;-68
2023/01/23 10:55:54;;;;;;;14.63;7.18;;;;;;;7.20;62.03;103658.03;4951393;28;119703;-68
2023/01/23 10:58:38;;;;;;;15.15;7.20;;;;;;;7.21;61.62;103660.69;4954736;28;124620;-68
2023/01/23 11:01:24;;;;;;;15.65;6.90;;;;;;;7.22;61.64;103657.19;4956587;28;124200;-68
2023/01/23 11:03:51;;;;;;;15.93;7.25;;;;;;;7.23;61.35;103663.31;4959425;28;119126;-68
2023/01/23 11:06:24;;;;;;;13.43;6.88;;;;;;;7.22;61.51;103662.44;4957850;28;119823;-69
2023/01/23 11:08:59;;;;;;;11.38;6.53;;;;;;;7.25;61.28;103658.06;4954874;28;126226;-69
2023/01/23 11:11:29;;;;;;;14.80;7.40;;;;;;;7.27;61.56;103664.25;4950765;28;124311;-68
2023/01/23 11:14:26;;;;;;;15.38;6.57;;;;;;;7.29;61.51;103662.53;4940573;28;121532;-68
2023/01/23 11:17:18;;;;;;;14.40;7.07;;;;;;;7.34;61.60;103667.00;4936066;28;120729;-69
2023/01/23 11:19:50;;;;;;;16.70;7.07;;;;;;;7.33;61.24;103664.38;4961638;28;124229;-69
2023/01/23 11:22:35;;;;;;;12.85;7.00;;;;;;;7.32;61.13;103658.19;4952148;28;123678;-69
2023/01/23 11:25:30;;;;;;;17.37;7.07;;;;;;;7.34;61.21;103655.56;4948557;28;119820;-69
2023/01/23 11:28:00;;;;;;;13.82;6.72;;;;;;;7.35;61.16;103657.34;4933241;28;119569;-68
2023/01/23 11:30:40;;;;;;;14.52;7.32;;;;;;;7.36;61.16;103659.13;4951151;28;124562;-69
2023/01/23 11:33:25;;;;;;;15.05;6.97;;;;;;;7.36;61.26;103648.56;4946752;28;125138;-68
2023/01/23 11:36:05;;;;;;;15.57;7.18;;;;;;;7.36;60.98;103654.72;4943695;28;119348;-69